2小时前

塔夫 Ameland Airport Ballum (EHAL)

2021年10月19日 19:002021年10月20日 07:00有效
于2021年10月19日 19:09发行

时间
星期二
19:00
星期二
20:00
星期二
21:00
星期二
22:00
星期二
23:00
星期三
00:00
星期三
01:00
星期三
02:00
星期三
03:00
星期三
04:00
星期三
05:00
星期三
06:00
代码
VFR
VFR
VFR
VFR
VFR
VFR
VFR
VFR
VFR
VFR
VFR
VFR
天气
疏云,零星散落的云朵
疏云,零星散落的云朵
疏云,零星散落的云朵
疏云,零星散落的云朵
疏云,零星散落的云朵
疏云,零星散落的云朵
疏云,零星散落的云朵
疏云,零星散落的云朵
疏云,零星散落的云朵
疏云,零星散落的云朵
疏云,零星散落的云朵
疏云,零星散落的云朵
能见度
10 公里+
10 公里+
10 公里+
10 公里+
10 公里+
10 公里+
10 公里+
10 公里+
10 公里+
10 公里+
10 公里+
10 公里+
天花板
-
-
-
-
-
-
-
-
-
-
-
-
230°
230°
230°
230°
230°
230°
230°
230°
230°
230°
230°
230°
230°
230°
230°
230°
230°
230°
230°
230°
230°
230°
230°
230°
速度
17 千吨
17 千吨
17 千吨
17 千吨
17 千吨
17 千吨
17 千吨
17 千吨
17 千吨
17 千吨
17 千吨
17 千吨
阵风
27 千吨
27 千吨
27 千吨
27 千吨
27 千吨
27 千吨
27 千吨
27 千吨
27 千吨
27 千吨
27 千吨
27 千吨
温度/星期日

原版的

TAF EHLW 191610Z 1917/2005 23017G27KT 9999 SCT025

TAF Ameland Airport Ballum

Ameland Airport Ballum是Ameland,荷兰中的小机场。 机场有{a,plural,=1{一条跑道} other{#跑道}}: 8/26

Ameland Airport Ballum最近未发布观察结果。相反,我们向您显示25 km的报告Leeuwarden Air Base。 该报告是针对2021年10月19日 19:09, 当地时间进行的。 从2021年10月19日 19:00到2021年10月20日 07:00, 当地时间有效.

预报

  • 从星期二 19:00到星期三 07:00

    • 风: 230° (南西), 17 千吨 预计27 千吨阵风。
    • 能见度: 10 公里 或者更多
    • 乌云: 疏云,零星散落的云朵在2.500 ft的高度.

白天

今天,太阳从08:12升起,在18:32降落。 这适用于Ameland Airport Ballum,世界夏令时可能有所不同。 当地时间与世界标准时间之间的时差为+2 小时。 夏令时目前正在进行中。